createdAt,value
2022-12-19T00:00:18.126Z,-2.91
2022-12-19T00:03:03.340Z,-2.89
2022-12-19T00:05:49.351Z,-2.96
2022-12-19T00:08:34.999Z,-3.04
2022-12-19T00:11:22.674Z,-3.02
2022-12-19T00:14:11.398Z,-3.03
2022-12-19T00:16:56.814Z,-3.00
2022-12-19T00:19:42.051Z,-2.95
2022-12-19T00:22:27.448Z,-2.91
2022-12-19T00:25:12.808Z,-2.83
2022-12-19T00:27:58.260Z,-2.82
2022-12-19T00:30:43.844Z,-2.74
2022-12-19T00:33:29.731Z,-2.74
2022-12-19T00:36:21.792Z,-2.72
2022-12-19T00:39:10.209Z,-2.74
2022-12-19T00:41:55.557Z,-2.80
2022-12-19T00:44:41.209Z,-2.79
2022-12-19T00:47:26.699Z,-2.67
2022-12-19T00:50:11.920Z,-2.65
2022-12-19T00:52:57.178Z,-2.73
2022-12-19T00:55:42.655Z,-2.79
2022-12-19T00:58:28.163Z,-2.80
2022-12-19T01:01:20.199Z,-2.77
2022-12-19T01:07:13.154Z,-2.72
2022-12-19T01:09:58.213Z,-2.82
2022-12-19T01:12:46.539Z,-2.78
2022-12-19T01:15:32.125Z,-2.79
2022-12-19T01:18:17.568Z,-2.72
2022-12-19T01:21:08.254Z,-2.66
2022-12-19T01:23:53.566Z,-2.61
2022-12-19T01:26:38.503Z,-2.58
2022-12-19T01:29:25.461Z,-2.64
2022-12-19T01:32:10.910Z,-2.77
2022-12-19T01:34:56.334Z,-2.71
2022-12-19T01:37:41.625Z,-2.74
2022-12-19T01:40:27.075Z,-2.78
2022-12-19T01:43:14.059Z,-2.87
2022-12-19T01:46:06.056Z,-2.83
2022-12-19T01:48:51.281Z,-2.81
2022-12-19T01:51:44.296Z,-2.78
2022-12-19T01:54:38.554Z,-2.73
2022-12-19T01:57:23.724Z,-2.68
2022-12-19T02:00:09.964Z,-2.67
2022-12-19T02:03:06.459Z,-2.71
2022-12-19T02:05:55.126Z,-2.82
2022-12-19T02:08:43.065Z,-2.81
2022-12-19T02:11:28.309Z,-2.76
2022-12-19T02:14:13.763Z,-2.74
2022-12-19T02:17:17.149Z,-2.65
2022-12-19T02:20:22.058Z,-2.61
2022-12-19T02:23:46.271Z,-2.56
2022-12-19T02:27:06.864Z,-2.49
2022-12-19T02:29:59.517Z,-2.57
2022-12-19T02:32:50.907Z,-2.62
2022-12-19T02:36:02.482Z,-2.60
2022-12-19T02:38:58.685Z,-2.58
2022-12-19T02:41:52.778Z,-2.52
2022-12-19T02:44:45.935Z,-2.57
2022-12-19T02:47:32.650Z,-2.62
2022-12-19T02:50:19.762Z,-2.59
2022-12-19T02:53:05.142Z,-2.52
2022-12-19T02:56:20.839Z,-2.53
2022-12-19T02:59:21.401Z,-2.56
2022-12-19T03:02:19.393Z,-2.63
2022-12-19T03:05:33.726Z,-2.56
2022-12-19T03:08:26.135Z,-2.54
2022-12-19T03:11:14.779Z,-2.50
2022-12-19T03:14:19.039Z,-2.49
2022-12-19T03:17:08.749Z,-2.44
2022-12-19T03:19:54.051Z,-2.48
2022-12-19T03:22:39.263Z,-2.57
2022-12-19T03:25:25.995Z,-2.58
2022-12-19T03:28:15.981Z,-2.58
2022-12-19T03:31:33.167Z,-2.58
2022-12-19T03:34:24.883Z,-2.50
2022-12-19T03:37:15.186Z,-2.47
2022-12-19T03:40:05.605Z,-2.42
2022-12-19T03:43:08.880Z,-2.42
2022-12-19T03:46:04.306Z,-2.45
2022-12-19T03:48:54.511Z,-2.42
2022-12-19T03:51:59.104Z,-2.50
2022-12-19T03:54:54.683Z,-2.50
2022-12-19T03:58:02.042Z,-2.49
2022-12-19T04:00:49.206Z,-2.51
2022-12-19T04:03:34.587Z,-2.52
2022-12-19T04:06:20.348Z,-2.48
2022-12-19T04:09:06.228Z,-2.53
2022-12-19T04:11:58.536Z,-2.54
2022-12-19T04:14:44.348Z,-2.54
2022-12-19T04:17:53.270Z,-2.51
2022-12-19T04:20:44.087Z,-2.48
2022-12-19T04:23:37.257Z,-2.48
2022-12-19T04:26:24.353Z,-2.47
2022-12-19T04:29:13.116Z,-2.45
2022-12-19T04:31:59.099Z,-2.50
2022-12-19T04:34:44.297Z,-2.52
2022-12-19T04:37:31.124Z,-2.47
2022-12-19T04:40:16.994Z,-2.54
2022-12-19T04:43:02.358Z,-2.53
2022-12-19T04:45:50.549Z,-2.50
2022-12-19T04:48:39.305Z,-2.49
2022-12-19T04:51:24.590Z,-2.52
2022-12-19T04:54:09.629Z,-2.49
2022-12-19T04:56:55.015Z,-2.51
2022-12-19T04:59:40.216Z,-2.52
2022-12-19T05:02:25.946Z,-2.53
2022-12-19T05:05:11.522Z,-2.54
2022-12-19T05:07:58.260Z,-2.56
2022-12-19T05:10:43.895Z,-2.57
2022-12-19T05:13:30.206Z,-2.56
2022-12-19T05:16:16.088Z,-2.56
2022-12-19T05:19:01.666Z,-2.57
2022-12-19T05:21:46.777Z,-2.58
2022-12-19T05:24:32.057Z,-2.63
2022-12-19T05:27:17.908Z,-2.61
2022-12-19T05:30:04.013Z,-2.58
2022-12-19T05:32:49.160Z,-2.57
2022-12-19T05:35:35.372Z,-2.52
2022-12-19T05:38:20.670Z,-2.43
2022-12-19T05:41:30.086Z,-2.34
2022-12-19T05:44:15.290Z,-2.29
2022-12-19T05:47:00.562Z,-2.27
2022-12-19T05:49:45.724Z,-2.22
2022-12-19T05:52:31.404Z,-2.12
2022-12-19T05:55:17.610Z,-2.18
2022-12-19T05:58:03.160Z,-2.22
2022-12-19T06:00:48.468Z,-2.23
2022-12-19T06:03:34.142Z,-2.19
2022-12-19T06:06:21.914Z,-2.17
2022-12-19T06:09:07.094Z,-2.14
2022-12-19T06:11:52.832Z,-2.07
2022-12-19T06:14:38.028Z,-2.04
2022-12-19T06:17:23.367Z,-2.06
2022-12-19T06:20:09.350Z,-2.13
2022-12-19T06:22:54.372Z,-2.11
2022-12-19T06:25:39.863Z,-2.03
2022-12-19T06:28:27.129Z,-2.05
2022-12-19T06:31:13.284Z,-2.02
2022-12-19T06:33:58.539Z,-1.97
2022-12-19T06:36:43.803Z,-1.95
2022-12-19T06:39:29.128Z,-1.93
2022-12-19T06:42:23.160Z,-1.93
2022-12-19T06:45:09.088Z,-1.92
2022-12-19T06:47:55.689Z,-1.86
2022-12-19T06:50:41.363Z,-1.83
2022-12-19T06:53:27.023Z,-1.80
2022-12-19T06:56:15.387Z,-1.71
2022-12-19T06:59:00.643Z,-1.68
2022-12-19T07:02:00.660Z,-1.61
2022-12-19T07:04:48.956Z,-1.65
2022-12-19T07:07:34.336Z,-1.59
2022-12-19T07:10:19.619Z,-1.56
2022-12-19T07:13:05.441Z,-1.50
2022-12-19T07:15:53.586Z,-1.47
2022-12-19T07:18:40.837Z,-1.51
2022-12-19T07:21:26.320Z,-1.45
2022-12-19T07:24:14.821Z,-1.42
2022-12-19T07:27:00.318Z,-1.38
2022-12-19T07:29:45.558Z,-1.31
2022-12-19T07:32:30.650Z,-1.24
2022-12-19T07:35:16.633Z,-1.20
2022-12-19T07:38:03.764Z,-1.13
2022-12-19T07:40:49.024Z,-1.14
2022-12-19T07:43:34.477Z,-1.08
2022-12-19T07:46:20.099Z,-1.03
2022-12-19T07:49:05.309Z,-0.97
2022-12-19T07:51:50.847Z,-0.93
2022-12-19T07:54:36.061Z,-0.86
2022-12-19T07:57:21.245Z,-0.78
2022-12-19T08:00:06.827Z,-0.77
2022-12-19T08:03:01.244Z,-0.71
2022-12-19T08:05:46.360Z,-0.64
2022-12-19T08:08:32.699Z,-0.58
2022-12-19T08:11:27.188Z,-0.55
2022-12-19T08:14:12.328Z,-0.54
2022-12-19T08:20:03.333Z,-0.50
2022-12-19T08:22:49.089Z,-0.46
2022-12-19T08:25:35.001Z,-0.41
2022-12-19T08:28:20.265Z,-0.40
2022-12-19T08:31:10.926Z,-0.41
2022-12-19T08:33:57.555Z,-0.43
2022-12-19T08:36:42.749Z,-0.33
2022-12-19T08:39:28.163Z,-0.21
2022-12-19T08:42:13.874Z,-0.15
2022-12-19T08:44:59.182Z,-0.09
2022-12-19T08:47:45.321Z,-0.12
2022-12-19T08:50:31.585Z,-0.07
2022-12-19T08:53:22.711Z,-0.04
2022-12-19T08:56:17.548Z,0.00
2022-12-19T08:59:02.805Z,0.04
2022-12-19T09:01:48.247Z,0.09
2022-12-19T09:06:03.726Z,0.04
2022-12-19T09:07:39.659Z,0.22
2022-12-19T09:10:25.179Z,0.13
2022-12-19T09:13:10.385Z,0.18
2022-12-19T09:16:03.281Z,0.12
2022-12-19T09:18:50.964Z,0.14
2022-12-19T09:21:36.356Z,0.19
2022-12-19T09:24:21.868Z,0.24
2022-12-19T09:27:07.196Z,0.34
2022-12-19T09:29:52.260Z,0.36
2022-12-19T09:32:37.692Z,0.36
2022-12-19T09:35:28.464Z,0.42
2022-12-19T09:38:15.280Z,0.50
2022-12-19T09:41:00.693Z,0.51
2022-12-19T09:44:01.367Z,0.64
2022-12-19T09:46:54.811Z,0.64
2022-12-19T09:49:45.930Z,0.63
2022-12-19T09:52:41.149Z,0.71
2022-12-19T09:55:32.637Z,0.81
2022-12-19T09:58:23.827Z,0.84
2022-12-19T10:01:36.186Z,0.97
2022-12-19T10:04:25.042Z,1.03
2022-12-19T10:07:33.167Z,1.12
2022-12-19T10:12:34.597Z,1.18
2022-12-19T10:13:58.216Z,1.29
2022-12-19T10:17:08.911Z,1.32
2022-12-19T10:20:14.989Z,1.39
2022-12-19T10:23:55.765Z,1.48
2022-12-19T10:26:46.655Z,1.45
2022-12-19T10:29:41.167Z,1.47
2022-12-19T10:32:49.878Z,1.53
2022-12-19T10:35:42.297Z,1.55
2022-12-19T10:38:35.845Z,1.61
2022-12-19T10:41:32.266Z,1.71
2022-12-19T10:44:19.086Z,1.82
2022-12-19T10:47:04.782Z,1.87
2022-12-19T10:49:50.083Z,1.89
2022-12-19T10:52:52.348Z,1.93
2022-12-19T10:55:48.005Z,1.97
2022-12-19T10:58:36.185Z,2.04
2022-12-19T11:01:29.273Z,2.06
2022-12-19T11:04:33.178Z,2.02
2022-12-19T11:07:21.183Z,1.99
2022-12-19T11:11:43.164Z,1.99
2022-12-19T11:17:44.994Z,2.01
2022-12-19T11:22:07.693Z,2.05
2022-12-19T11:29:33.108Z,2.09
2022-12-19T11:29:35.141Z,2.05
2022-12-19T11:30:47.110Z,2.04
2022-12-19T11:33:11.298Z,2.01
2022-12-19T11:35:59.078Z,2.00
2022-12-19T11:38:53.987Z,2.01
2022-12-19T11:41:45.820Z,2.01
2022-12-19T11:44:46.629Z,1.97
2022-12-19T11:47:58.687Z,1.97
2022-12-19T11:50:58.859Z,1.95
2022-12-19T11:53:56.393Z,1.97
2022-12-19T11:56:41.907Z,2.00
2022-12-19T11:59:36.784Z,2.03
2022-12-19T12:02:40.752Z,2.08
2022-12-19T12:05:38.069Z,2.04
2022-12-19T12:13:36.176Z,2.01
2022-12-19T12:19:46.880Z,2.00
2022-12-19T12:29:31.010Z,2.00
2022-12-19T12:31:05.151Z,2.03
2022-12-19T12:31:22.908Z,2.07
2022-12-19T12:31:42.233Z,2.04
2022-12-19T12:31:50.062Z,2.08
2022-12-19T12:35:56.480Z,2.01
2022-12-19T12:39:24.345Z,2.00
2022-12-19T12:42:33.532Z,2.05
2022-12-19T12:45:40.155Z,2.01
2022-12-19T12:48:38.081Z,2.14
2022-12-19T12:51:25.548Z,2.09
2022-12-19T12:54:14.824Z,2.07
2022-12-19T12:57:01.488Z,2.05
2022-12-19T12:59:47.732Z,2.03
2022-12-19T13:02:33.327Z,2.08
2022-12-19T13:11:10.436Z,2.10
2022-12-19T13:13:58.067Z,2.07
2022-12-19T13:16:43.594Z,2.11
2022-12-19T13:19:34.389Z,2.07
2022-12-19T13:22:41.800Z,2.07
2022-12-19T13:25:27.111Z,2.05
2022-12-19T13:28:21.785Z,2.04
2022-12-19T13:31:19.771Z,2.05
2022-12-19T13:34:17.422Z,2.05
2022-12-19T13:39:49.937Z,2.01
2022-12-19T13:40:34.136Z,2.04
2022-12-19T13:43:42.444Z,1.94
2022-12-19T13:46:42.566Z,1.96
2022-12-19T13:49:34.780Z,1.97
2022-12-19T13:52:20.746Z,2.04
2022-12-19T13:55:14.135Z,2.05
2022-12-19T13:58:04.369Z,2.04
2022-12-19T14:00:53.949Z,2.05
2022-12-19T14:03:42.559Z,2.09
2022-12-19T14:06:30.979Z,2.09
2022-12-19T14:11:25.255Z,2.11
2022-12-19T14:13:51.144Z,2.07
2022-12-19T14:16:15.187Z,2.08
2022-12-19T14:19:00.636Z,2.14
2022-12-19T14:22:05.442Z,2.09
2022-12-19T14:25:33.210Z,2.10
2022-12-19T14:28:17.737Z,2.09
2022-12-19T14:31:16.508Z,2.13
2022-12-19T14:34:35.466Z,2.17
2022-12-19T14:38:03.843Z,2.21
2022-12-19T14:41:00.200Z,2.23
2022-12-19T14:43:58.791Z,2.26
2022-12-19T14:52:50.943Z,2.28
2022-12-19T14:54:38.004Z,2.31
2022-12-19T14:58:50.903Z,2.36
2022-12-19T15:01:10.315Z,2.37
2022-12-19T15:04:50.555Z,2.42
2022-12-19T15:07:14.931Z,2.42
2022-12-19T15:11:03.940Z,2.42
2022-12-19T15:14:47.270Z,2.47
2022-12-19T15:16:30.550Z,2.50
2022-12-19T15:19:15.739Z,2.52
2022-12-19T15:22:01.123Z,2.51
2022-12-19T15:24:46.621Z,2.56
2022-12-19T15:27:31.886Z,2.59
2022-12-19T15:30:20.576Z,2.64
2022-12-19T15:33:13.214Z,2.64
2022-12-19T15:35:58.501Z,2.65
2022-12-19T15:38:44.019Z,2.70
2022-12-19T15:41:29.571Z,2.72
2022-12-19T15:44:31.293Z,2.73
2022-12-19T15:47:25.701Z,2.77
2022-12-19T15:50:18.627Z,2.80
2022-12-19T15:53:32.780Z,2.81
2022-12-19T15:56:31.790Z,2.85
2022-12-19T15:59:22.962Z,2.88
2022-12-19T16:02:27.996Z,2.92
2022-12-19T16:05:24.951Z,2.94
2022-12-19T16:08:21.343Z,2.98
2022-12-19T16:11:06.600Z,3.01
2022-12-19T16:13:57.925Z,3.12
2022-12-19T16:16:46.530Z,3.14
2022-12-19T16:19:32.201Z,3.07
2022-12-19T16:22:23.711Z,3.08
2022-12-19T16:25:11.469Z,3.07
2022-12-19T16:27:58.686Z,3.08
2022-12-19T16:30:44.533Z,3.18
2022-12-19T16:33:31.151Z,3.15
2022-12-19T16:36:16.298Z,3.19
2022-12-19T16:39:01.558Z,3.19
2022-12-19T16:41:47.346Z,3.20
2022-12-19T16:44:34.751Z,3.21
2022-12-19T16:47:19.800Z,3.24
2022-12-19T16:50:17.483Z,3.28
2022-12-19T16:53:02.590Z,3.27
2022-12-19T16:55:49.774Z,3.32
2022-12-19T16:58:41.306Z,3.34
2022-12-19T17:01:28.912Z,3.40
2022-12-19T17:04:17.507Z,3.41
2022-12-19T17:07:10.882Z,3.42
2022-12-19T17:09:56.158Z,3.45
2022-12-19T17:12:42.580Z,3.46
2022-12-19T17:15:34.283Z,3.51
2022-12-19T17:18:31.467Z,3.51
2022-12-19T17:21:22.111Z,3.55
2022-12-19T17:24:12.893Z,3.55
2022-12-19T17:26:58.056Z,3.56
2022-12-19T17:29:43.947Z,3.57
2022-12-19T17:32:29.524Z,3.60
2022-12-19T17:35:27.364Z,3.62
2022-12-19T17:38:15.280Z,3.63
2022-12-19T17:41:00.540Z,3.65
2022-12-19T17:43:45.810Z,3.67
2022-12-19T17:46:31.339Z,3.70
2022-12-19T17:49:21.668Z,3.68
2022-12-19T17:52:13.504Z,3.71
2022-12-19T17:54:58.517Z,3.71
2022-12-19T17:57:44.344Z,3.74
2022-12-19T18:00:32.386Z,3.73
2022-12-19T18:03:25.815Z,3.74
2022-12-19T18:06:12.466Z,3.77
2022-12-19T18:08:57.773Z,3.81
2022-12-19T18:11:42.882Z,3.82
2022-12-19T18:14:28.391Z,3.81
2022-12-19T18:17:21.406Z,3.85
2022-12-19T18:20:31.921Z,3.85
2022-12-19T18:23:20.444Z,3.86
2022-12-19T18:26:05.945Z,3.86
2022-12-19T18:28:50.998Z,3.88
2022-12-19T18:31:36.812Z,3.89
2022-12-19T18:34:25.873Z,3.91
2022-12-19T18:37:17.278Z,3.93
2022-12-19T18:40:02.462Z,3.91
2022-12-19T18:42:48.784Z,3.92
2022-12-19T18:45:36.968Z,3.94
2022-12-19T18:48:32.875Z,3.97
2022-12-19T18:51:20.978Z,4.00
2022-12-19T18:54:15.286Z,4.00
2022-12-19T18:57:00.615Z,4.03
2022-12-19T18:59:47.650Z,4.06
2022-12-19T19:02:33.371Z,4.09
2022-12-19T19:05:22.162Z,4.10
2022-12-19T19:08:16.313Z,4.13
2022-12-19T19:11:03.554Z,4.15
2022-12-19T19:13:49.288Z,4.17
2022-12-19T19:16:36.962Z,4.18
2022-12-19T19:19:21.998Z,4.21
2022-12-19T19:22:07.233Z,4.25
2022-12-19T19:24:52.669Z,4.27
2022-12-19T19:27:39.829Z,4.28
2022-12-19T19:30:25.219Z,4.28
2022-12-19T19:33:19.960Z,4.29
2022-12-19T19:36:12.309Z,4.33
2022-12-19T19:38:59.025Z,4.31
2022-12-19T19:41:44.523Z,4.29
2022-12-19T19:44:30.079Z,4.27
2022-12-19T19:47:15.535Z,4.26
2022-12-19T19:50:00.793Z,4.26
2022-12-19T19:52:46.297Z,4.29
2022-12-19T19:55:31.644Z,4.33
2022-12-19T19:58:16.840Z,4.35
2022-12-19T20:01:08.141Z,4.34
2022-12-19T20:03:53.602Z,4.33
2022-12-19T20:06:38.765Z,4.33
2022-12-19T20:09:23.816Z,4.30
2022-12-19T20:12:09.351Z,4.30
2022-12-19T20:14:54.540Z,4.28
2022-12-19T20:17:40.624Z,4.26
2022-12-19T20:20:26.081Z,4.29
2022-12-19T20:23:11.537Z,4.25
2022-12-19T20:26:01.527Z,4.25
2022-12-19T20:28:49.437Z,4.23
2022-12-19T20:31:35.205Z,4.27
2022-12-19T20:34:20.362Z,4.22
2022-12-19T20:37:05.827Z,4.21
2022-12-19T20:39:52.758Z,4.22
2022-12-19T20:42:38.344Z,4.20
2022-12-19T20:45:23.423Z,4.17
2022-12-19T20:48:09.244Z,4.15
2022-12-19T20:50:59.280Z,4.14
2022-12-19T20:53:45.014Z,4.15
2022-12-19T20:56:30.875Z,4.16
2022-12-19T20:59:16.573Z,4.17
2022-12-19T21:02:02.585Z,4.15
2022-12-19T21:04:48.324Z,4.13
2022-12-19T21:07:33.835Z,4.11
2022-12-19T21:10:18.885Z,4.13
2022-12-19T21:13:04.606Z,4.09
2022-12-19T21:15:54.505Z,4.07
2022-12-19T21:18:43.826Z,4.06
2022-12-19T21:21:29.470Z,4.08
2022-12-19T21:24:14.801Z,4.08
2022-12-19T21:27:00.134Z,4.06
2022-12-19T21:29:45.522Z,4.05
2022-12-19T21:32:30.701Z,4.03
2022-12-19T21:35:16.292Z,4.00
2022-12-19T21:38:01.790Z,4.00
2022-12-19T21:40:47.583Z,3.99
2022-12-19T21:43:34.364Z,3.98
2022-12-19T21:46:22.390Z,3.99
2022-12-19T21:49:08.670Z,4.00
2022-12-19T21:51:53.828Z,4.03
2022-12-19T21:54:39.067Z,4.08
2022-12-19T21:57:24.274Z,4.14
2022-12-19T22:00:12.936Z,4.20
2022-12-19T22:03:15.111Z,4.24
2022-12-19T22:06:01.353Z,4.29
2022-12-19T22:08:47.055Z,4.30
2022-12-19T22:11:32.204Z,4.31
2022-12-19T22:14:18.162Z,4.31
2022-12-19T22:17:03.514Z,4.29
2022-12-19T22:19:48.997Z,4.29
2022-12-19T22:22:34.365Z,4.32
2022-12-19T22:25:19.478Z,4.33
2022-12-19T22:28:05.455Z,4.37
2022-12-19T22:30:50.704Z,4.40
2022-12-19T22:33:35.872Z,4.41
2022-12-19T22:36:28.060Z,4.43
2022-12-19T22:39:17.780Z,4.43
2022-12-19T22:42:03.093Z,4.42
2022-12-19T22:44:48.255Z,4.44
2022-12-19T22:47:33.649Z,4.43
2022-12-19T22:50:19.671Z,4.44
2022-12-19T22:53:12.554Z,4.48
2022-12-19T22:56:06.126Z,4.48
2022-12-19T22:58:53.331Z,4.50
2022-12-19T23:01:44.245Z,4.53
2022-12-19T23:04:30.025Z,4.54
2022-12-19T23:07:16.225Z,4.55
2022-12-19T23:10:02.794Z,4.57
2022-12-19T23:12:50.628Z,4.59
2022-12-19T23:15:35.715Z,4.59
2022-12-19T23:18:20.823Z,4.59
2022-12-19T23:21:10.285Z,4.60
2022-12-19T23:23:56.341Z,4.59
2022-12-19T23:26:41.579Z,4.57
2022-12-19T23:29:26.763Z,4.58
2022-12-19T23:32:14.275Z,4.62
2022-12-19T23:34:59.811Z,4.64
2022-12-19T23:37:44.985Z,4.65
2022-12-19T23:40:30.231Z,4.69
2022-12-19T23:43:16.246Z,4.71
2022-12-19T23:46:12.181Z,4.70
2022-12-19T23:48:57.496Z,4.72
2022-12-19T23:51:43.078Z,4.72
2022-12-19T23:54:28.192Z,4.74
2022-12-19T23:57:13.498Z,4.76
2022-12-19T23:59:59.264Z,4.76
